sensor_id;sensor_type;location;lat;lon;timestamp;P1;durP1;ratioP1;P2;durP2;ratioP2
40659;SDS011;26753;45.544;9.232;2024-03-06T00:02:06;1.60;;;1.50;;
40659;SDS011;26753;45.544;9.232;2024-03-06T00:04:32;1.80;;;1.40;;
40659;SDS011;26753;45.544;9.232;2024-03-06T00:06:58;1.63;;;1.40;;
40659;SDS011;26753;45.544;9.232;2024-03-06T00:09:24;1.65;;;1.48;;
40659;SDS011;26753;45.544;9.232;2024-03-06T00:11:53;2.75;;;1.45;;
40659;SDS011;26753;45.544;9.232;2024-03-06T00:14:20;2.75;;;1.30;;
40659;SDS011;26753;45.544;9.232;2024-03-06T00:16:49;2.45;;;1.40;;
40659;SDS011;26753;45.544;9.232;2024-03-06T00:19:18;2.75;;;1.40;;
40659;SDS011;26753;45.544;9.232;2024-03-06T00:21:45;1.50;;;1.30;;
40659;SDS011;26753;45.544;9.232;2024-03-06T00:24:11;1.85;;;1.40;;
40659;SDS011;26753;45.544;9.232;2024-03-06T00:26:39;1.50;;;1.40;;
40659;SDS011;26753;45.544;9.232;2024-03-06T00:29:12;2.20;;;1.30;;
40659;SDS011;26753;45.544;9.232;2024-03-06T00:31:42;3.25;;;1.42;;
40659;SDS011;26753;45.544;9.232;2024-03-06T00:34:09;2.13;;;1.40;;
40659;SDS011;26753;45.544;9.232;2024-03-06T00:36:35;2.08;;;1.35;;
40659;SDS011;26753;45.544;9.232;2024-03-06T00:39:01;2.83;;;1.40;;
40659;SDS011;26753;45.544;9.232;2024-03-06T00:41:29;1.98;;;1.45;;
40659;SDS011;26753;45.544;9.232;2024-03-06T00:43:55;3.55;;;1.52;;
40659;SDS011;26753;45.544;9.232;2024-03-06T00:46:21;1.50;;;1.40;;
40659;SDS011;26753;45.544;9.232;2024-03-06T00:48:47;2.10;;;1.50;;
40659;SDS011;26753;45.544;9.232;2024-03-06T00:51:13;1.70;;;1.40;;
40659;SDS011;26753;45.544;9.232;2024-03-06T00:53:39;1.85;;;1.50;;
40659;SDS011;26753;45.544;9.232;2024-03-06T00:56:05;2.10;;;1.48;;
40659;SDS011;26753;45.544;9.232;2024-03-06T00:58:31;4.57;;;1.80;;
40659;SDS011;26753;45.544;9.232;2024-03-06T01:00:57;1.90;;;1.38;;
40659;SDS011;26753;45.544;9.232;2024-03-06T01:03:23;1.85;;;1.30;;
40659;SDS011;26753;45.544;9.232;2024-03-06T01:05:50;2.33;;;1.30;;
40659;SDS011;26753;45.544;9.232;2024-03-06T01:08:17;1.83;;;1.48;;
40659;SDS011;26753;45.544;9.232;2024-03-06T01:10:43;1.42;;;1.33;;
40659;SDS011;26753;45.544;9.232;2024-03-06T01:13:09;1.58;;;1.40;;
40659;SDS011;26753;45.544;9.232;2024-03-06T01:15:36;1.90;;;1.50;;
40659;SDS011;26753;45.544;9.232;2024-03-06T01:18:02;1.85;;;1.60;;
40659;SDS011;26753;45.544;9.232;2024-03-06T01:20:28;1.90;;;1.70;;
40659;SDS011;26753;45.544;9.232;2024-03-06T01:22:54;2.35;;;1.58;;
40659;SDS011;26753;45.544;9.232;2024-03-06T01:25:20;4.57;;;2.00;;
40659;SDS011;26753;45.544;9.232;2024-03-06T01:27:47;2.38;;;1.60;;
40659;SDS011;26753;45.544;9.232;2024-03-06T01:30:13;2.38;;;1.73;;
40659;SDS011;26753;45.544;9.232;2024-03-06T01:32:39;2.63;;;1.60;;
40659;SDS011;26753;45.544;9.232;2024-03-06T01:35:05;1.73;;;1.55;;
40659;SDS011;26753;45.544;9.232;2024-03-06T01:37:31;2.50;;;1.90;;
40659;SDS011;26753;45.544;9.232;2024-03-06T01:39:57;2.63;;;1.90;;
40659;SDS011;26753;45.544;9.232;2024-03-06T01:42:23;2.20;;;1.60;;
40659;SDS011;26753;45.544;9.232;2024-03-06T01:44:49;1.80;;;1.60;;
40659;SDS011;26753;45.544;9.232;2024-03-06T01:47:15;1.90;;;1.70;;
40659;SDS011;26753;45.544;9.232;2024-03-06T01:49:41;1.98;;;1.70;;
40659;SDS011;26753;45.544;9.232;2024-03-06T01:52:08;2.55;;;1.80;;
40659;SDS011;26753;45.544;9.232;2024-03-06T01:54:35;2.28;;;1.70;;
40659;SDS011;26753;45.544;9.232;2024-03-06T01:57:01;1.88;;;1.70;;
40659;SDS011;26753;45.544;9.232;2024-03-06T01:59:28;2.85;;;1.65;;
40659;SDS011;26753;45.544;9.232;2024-03-06T02:01:54;1.70;;;1.50;;
40659;SDS011;26753;45.544;9.232;2024-03-06T02:04:20;1.92;;;1.63;;
40659;SDS011;26753;45.544;9.232;2024-03-06T02:06:47;2.55;;;1.83;;
40659;SDS011;26753;45.544;9.232;2024-03-06T02:09:12;1.83;;;1.70;;
40659;SDS011;26753;45.544;9.232;2024-03-06T02:11:39;3.05;;;2.03;;
40659;SDS011;26753;45.544;9.232;2024-03-06T02:14:07;3.58;;;1.70;;
40659;SDS011;26753;45.544;9.232;2024-03-06T02:16:35;2.72;;;1.88;;
40659;SDS011;26753;45.544;9.232;2024-03-06T02:19:01;4.82;;;2.10;;
40659;SDS011;26753;45.544;9.232;2024-03-06T02:21:28;2.50;;;1.90;;
40659;SDS011;26753;45.544;9.232;2024-03-06T02:23:54;2.72;;;1.90;;
40659;SDS011;26753;45.544;9.232;2024-03-06T02:26:19;2.63;;;1.80;;
40659;SDS011;26753;45.544;9.232;2024-03-06T02:28:46;2.80;;;1.73;;
40659;SDS011;26753;45.544;9.232;2024-03-06T02:31:14;3.20;;;1.70;;
40659;SDS011;26753;45.544;9.232;2024-03-06T02:33:40;2.63;;;1.80;;
40659;SDS011;26753;45.544;9.232;2024-03-06T02:36:06;3.10;;;1.88;;
40659;SDS011;26753;45.544;9.232;2024-03-06T02:38:32;2.47;;;2.00;;
40659;SDS011;26753;45.544;9.232;2024-03-06T02:40:58;2.20;;;1.90;;
40659;SDS011;26753;45.544;9.232;2024-03-06T02:43:24;3.33;;;2.28;;
40659;SDS011;26753;45.544;9.232;2024-03-06T02:45:50;2.85;;;2.10;;
40659;SDS011;26753;45.544;9.232;2024-03-06T02:48:16;5.53;;;2.60;;
40659;SDS011;26753;45.544;9.232;2024-03-06T02:50:41;2.75;;;2.22;;
40659;SDS011;26753;45.544;9.232;2024-03-06T02:53:07;3.42;;;2.35;;
40659;SDS011;26753;45.544;9.232;2024-03-06T02:55:32;3.08;;;2.10;;
40659;SDS011;26753;45.544;9.232;2024-03-06T02:58:01;3.45;;;2.47;;
40659;SDS011;26753;45.544;9.232;2024-03-06T03:00:27;5.30;;;3.30;;
40659;SDS011;26753;45.544;9.232;2024-03-06T03:02:53;7.78;;;5.18;;
40659;SDS011;26753;45.544;9.232;2024-03-06T03:05:19;5.25;;;3.85;;
40659;SDS011;26753;45.544;9.232;2024-03-06T03:07:45;4.35;;;3.03;;
40659;SDS011;26753;45.544;9.232;2024-03-06T03:10:10;4.90;;;3.13;;
40659;SDS011;26753;45.544;9.232;2024-03-06T03:12:40;5.45;;;3.75;;
40659;SDS011;26753;45.544;9.232;2024-03-06T03:15:05;5.80;;;3.08;;
40659;SDS011;26753;45.544;9.232;2024-03-06T03:17:32;4.15;;;2.80;;
40659;SDS011;26753;45.544;9.232;2024-03-06T03:19:59;3.55;;;2.90;;
40659;SDS011;26753;45.544;9.232;2024-03-06T03:22:24;3.90;;;3.00;;
40659;SDS011;26753;45.544;9.232;2024-03-06T03:24:50;5.20;;;3.45;;
40659;SDS011;26753;45.544;9.232;2024-03-06T03:27:16;3.83;;;3.20;;
40659;SDS011;26753;45.544;9.232;2024-03-06T03:29:43;3.85;;;3.20;;
40659;SDS011;26753;45.544;9.232;2024-03-06T03:32:09;5.32;;;3.30;;
40659;SDS011;26753;45.544;9.232;2024-03-06T03:34:35;5.38;;;3.28;;
40659;SDS011;26753;45.544;9.232;2024-03-06T03:37:01;4.45;;;3.40;;
40659;SDS011;26753;45.544;9.232;2024-03-06T03:39:27;4.07;;;3.20;;
40659;SDS011;26753;45.544;9.232;2024-03-06T03:41:53;4.68;;;3.67;;
40659;SDS011;26753;45.544;9.232;2024-03-06T03:44:19;4.57;;;4.00;;
40659;SDS011;26753;45.544;9.232;2024-03-06T03:46:45;5.32;;;4.10;;
40659;SDS011;26753;45.544;9.232;2024-03-06T03:49:11;5.95;;;4.13;;
40659;SDS011;26753;45.544;9.232;2024-03-06T03:51:37;5.35;;;4.03;;
40659;SDS011;26753;45.544;9.232;2024-03-06T03:54:04;5.15;;;3.90;;
40659;SDS011;26753;45.544;9.232;2024-03-06T03:56:31;4.65;;;3.60;;
40659;SDS011;26753;45.544;9.232;2024-03-06T03:58:57;5.70;;;3.60;;
40659;SDS011;26753;45.544;9.232;2024-03-06T04:01:23;4.95;;;3.60;;
40659;SDS011;26753;45.544;9.232;2024-03-06T04:03:50;5.80;;;3.70;;
40659;SDS011;26753;45.544;9.232;2024-03-06T04:06:16;4.70;;;4.20;;
40659;SDS011;26753;45.544;9.232;2024-03-06T04:08:42;5.68;;;4.40;;
40659;SDS011;26753;45.544;9.232;2024-03-06T04:11:08;5.55;;;4.30;;
40659;SDS011;26753;45.544;9.232;2024-03-06T04:13:37;5.20;;;4.70;;
40659;SDS011;26753;45.544;9.232;2024-03-06T04:16:03;5.38;;;4.70;;
40659;SDS011;26753;45.544;9.232;2024-03-06T04:18:31;6.97;;;5.40;;
40659;SDS011;26753;45.544;9.232;2024-03-06T04:20:59;6.80;;;5.40;;
40659;SDS011;26753;45.544;9.232;2024-03-06T04:23:31;5.68;;;5.00;;
40659;SDS011;26753;45.544;9.232;2024-03-06T04:25:57;5.60;;;5.00;;
40659;SDS011;26753;45.544;9.232;2024-03-06T04:28:23;6.32;;;5.10;;
40659;SDS011;26753;45.544;9.232;2024-03-06T04:30:49;8.30;;;4.80;;
40659;SDS011;26753;45.544;9.232;2024-03-06T04:33:15;6.30;;;5.43;;
40659;SDS011;26753;45.544;9.232;2024-03-06T04:35:41;8.05;;;5.80;;
40659;SDS011;26753;45.544;9.232;2024-03-06T04:38:06;8.20;;;6.10;;
40659;SDS011;26753;45.544;9.232;2024-03-06T04:40:33;7.25;;;6.05;;
40659;SDS011;26753;45.544;9.232;2024-03-06T04:42:59;7.97;;;6.45;;
40659;SDS011;26753;45.544;9.232;2024-03-06T04:45:25;9.20;;;6.65;;
40659;SDS011;26753;45.544;9.232;2024-03-06T04:47:51;8.35;;;6.93;;
40659;SDS011;26753;45.544;9.232;2024-03-06T04:50:17;8.20;;;6.70;;
40659;SDS011;26753;45.544;9.232;2024-03-06T04:52:43;7.57;;;6.15;;
40659;SDS011;26753;45.544;9.232;2024-03-06T04:55:12;7.40;;;6.38;;
40659;SDS011;26753;45.544;9.232;2024-03-06T04:57:41;7.93;;;6.38;;
40659;SDS011;26753;45.544;9.232;2024-03-06T05:00:08;8.07;;;6.10;;
40659;SDS011;26753;45.544;9.232;2024-03-06T05:02:34;8.43;;;5.90;;
40659;SDS011;26753;45.544;9.232;2024-03-06T05:05:02;7.13;;;5.80;;
40659;SDS011;26753;45.544;9.232;2024-03-06T05:07:29;8.98;;;5.78;;
40659;SDS011;26753;45.544;9.232;2024-03-06T05:09:55;6.07;;;4.95;;
40659;SDS011;26753;45.544;9.232;2024-03-06T05:12:22;4.75;;;3.50;;
40659;SDS011;26753;45.544;9.232;2024-03-06T05:14:48;3.47;;;2.20;;
40659;SDS011;26753;45.544;9.232;2024-03-06T05:17:14;4.75;;;1.92;;
40659;SDS011;26753;45.544;9.232;2024-03-06T05:19:40;2.60;;;1.40;;
40659;SDS011;26753;45.544;9.232;2024-03-06T05:22:06;2.47;;;1.08;;
40659;SDS011;26753;45.544;9.232;2024-03-06T05:24:32;2.58;;;1.35;;
40659;SDS011;26753;45.544;9.232;2024-03-06T05:26:57;1.85;;;1.27;;
40659;SDS011;26753;45.544;9.232;2024-03-06T05:29:24;2.03;;;1.50;;
40659;SDS011;26753;45.544;9.232;2024-03-06T05:31:50;3.53;;;1.40;;
40659;SDS011;26753;45.544;9.232;2024-03-06T05:34:16;2.38;;;1.50;;
40659;SDS011;26753;45.544;9.232;2024-03-06T05:36:42;3.63;;;1.50;;
40659;SDS011;26753;45.544;9.232;2024-03-06T05:39:08;1.90;;;1.00;;
40659;SDS011;26753;45.544;9.232;2024-03-06T05:41:37;3.78;;;1.30;;
40659;SDS011;26753;45.544;9.232;2024-03-06T05:44:04;2.25;;;1.17;;
40659;SDS011;26753;45.544;9.232;2024-03-06T05:46:30;1.92;;;0.90;;
40659;SDS011;26753;45.544;9.232;2024-03-06T05:48:55;1.30;;;1.10;;
40659;SDS011;26753;45.544;9.232;2024-03-06T05:51:21;3.08;;;1.30;;
40659;SDS011;26753;45.544;9.232;2024-03-06T05:53:47;2.05;;;1.20;;
40659;SDS011;26753;45.544;9.232;2024-03-06T05:56:13;1.35;;;1.20;;
40659;SDS011;26753;45.544;9.232;2024-03-06T05:58:39;2.08;;;1.13;;
40659;SDS011;26753;45.544;9.232;2024-03-06T06:01:05;3.42;;;1.90;;
40659;SDS011;26753;45.544;9.232;2024-03-06T06:03:31;5.35;;;2.42;;
40659;SDS011;26753;45.544;9.232;2024-03-06T06:05:57;3.90;;;1.65;;
40659;SDS011;26753;45.544;9.232;2024-03-06T06:08:26;2.50;;;1.48;;
40659;SDS011;26753;45.544;9.232;2024-03-06T06:10:52;2.60;;;1.52;;
40659;SDS011;26753;45.544;9.232;2024-03-06T06:13:18;2.28;;;1.60;;
40659;SDS011;26753;45.544;9.232;2024-03-06T06:15:44;3.05;;;1.50;;
40659;SDS011;26753;45.544;9.232;2024-03-06T06:18:10;2.45;;;1.30;;
40659;SDS011;26753;45.544;9.232;2024-03-06T06:20:36;2.30;;;1.30;;
40659;SDS011;26753;45.544;9.232;2024-03-06T06:23:01;3.25;;;1.50;;
40659;SDS011;26753;45.544;9.232;2024-03-06T06:25:27;5.13;;;1.40;;
40659;SDS011;26753;45.544;9.232;2024-03-06T06:27:53;5.53;;;1.80;;
40659;SDS011;26753;45.544;9.232;2024-03-06T06:30:19;4.18;;;1.98;;
40659;SDS011;26753;45.544;9.232;2024-03-06T06:32:45;4.80;;;1.63;;
40659;SDS011;26753;45.544;9.232;2024-03-06T06:35:11;2.22;;;1.50;;
40659;SDS011;26753;45.544;9.232;2024-03-06T06:37:38;2.13;;;1.40;;
40659;SDS011;26753;45.544;9.232;2024-03-06T06:40:05;4.43;;;1.60;;
40659;SDS011;26753;45.544;9.232;2024-03-06T06:42:32;3.72;;;1.50;;
40659;SDS011;26753;45.544;9.232;2024-03-06T06:44:59;2.72;;;1.40;;
40659;SDS011;26753;45.544;9.232;2024-03-06T06:47:25;2.67;;;1.60;;
40659;SDS011;26753;45.544;9.232;2024-03-06T06:49:52;4.63;;;1.45;;
40659;SDS011;26753;45.544;9.232;2024-03-06T06:52:18;2.85;;;1.42;;
40659;SDS011;26753;45.544;9.232;2024-03-06T06:54:44;4.30;;;2.22;;
40659;SDS011;26753;45.544;9.232;2024-03-06T06:57:13;6.03;;;2.33;;
40659;SDS011;26753;45.544;9.232;2024-03-06T06:59:39;3.85;;;1.90;;
40659;SDS011;26753;45.544;9.232;2024-03-06T07:02:04;4.45;;;1.85;;
40659;SDS011;26753;45.544;9.232;2024-03-06T07:04:31;2.83;;;1.58;;
40659;SDS011;26753;45.544;9.232;2024-03-06T07:06:56;3.42;;;1.92;;
40659;SDS011;26753;45.544;9.232;2024-03-06T07:09:22;4.32;;;1.60;;
40659;SDS011;26753;45.544;9.232;2024-03-06T07:11:48;2.90;;;1.50;;
40659;SDS011;26753;45.544;9.232;2024-03-06T07:14:15;5.38;;;1.90;;
40659;SDS011;26753;45.544;9.232;2024-03-06T07:16:42;6.32;;;2.20;;
40659;SDS011;26753;45.544;9.232;2024-03-06T07:19:08;5.72;;;1.80;;
40659;SDS011;26753;45.544;9.232;2024-03-06T07:21:34;3.83;;;1.70;;
40659;SDS011;26753;45.544;9.232;2024-03-06T07:24:01;2.83;;;1.85;;
40659;SDS011;26753;45.544;9.232;2024-03-06T07:26:27;3.63;;;1.92;;
40659;SDS011;26753;45.544;9.232;2024-03-06T07:28:55;3.63;;;2.17;;
40659;SDS011;26753;45.544;9.232;2024-03-06T07:31:21;4.15;;;1.98;;
40659;SDS011;26753;45.544;9.232;2024-03-06T07:33:47;3.13;;;2.03;;
40659;SDS011;26753;45.544;9.232;2024-03-06T07:36:13;7.22;;;2.63;;
40659;SDS011;26753;45.544;9.232;2024-03-06T07:38:39;2.88;;;1.92;;
40659;SDS011;26753;45.544;9.232;2024-03-06T07:41:06;4.32;;;2.20;;
40659;SDS011;26753;45.544;9.232;2024-03-06T07:43:32;5.00;;;2.10;;
40659;SDS011;26753;45.544;9.232;2024-03-06T07:45:58;4.63;;;2.20;;
40659;SDS011;26753;45.544;9.232;2024-03-06T07:48:24;4.00;;;2.40;;
40659;SDS011;26753;45.544;9.232;2024-03-06T07:50:50;6.10;;;2.30;;
40659;SDS011;26753;45.544;9.232;2024-03-06T07:53:16;5.18;;;2.53;;
40659;SDS011;26753;45.544;9.232;2024-03-06T07:55:42;4.68;;;2.30;;
40659;SDS011;26753;45.544;9.232;2024-03-06T07:58:08;5.63;;;2.60;;
40659;SDS011;26753;45.544;9.232;2024-03-06T08:00:35;4.75;;;2.17;;
40659;SDS011;26753;45.544;9.232;2024-03-06T08:03:01;5.35;;;2.10;;
40659;SDS011;26753;45.544;9.232;2024-03-06T08:05:27;4.82;;;2.20;;
40659;SDS011;26753;45.544;9.232;2024-03-06T08:07:53;4.65;;;2.03;;
40659;SDS011;26753;45.544;9.232;2024-03-06T08:10:19;3.20;;;2.20;;
40659;SDS011;26753;45.544;9.232;2024-03-06T08:12:45;6.00;;;2.15;;
40659;SDS011;26753;45.544;9.232;2024-03-06T08:15:13;4.32;;;2.03;;
40659;SDS011;26753;45.544;9.232;2024-03-06T08:17:40;5.65;;;2.38;;
40659;SDS011;26753;45.544;9.232;2024-03-06T08:20:10;4.25;;;2.33;;
40659;SDS011;26753;45.544;9.232;2024-03-06T08:22:37;3.97;;;2.40;;
40659;SDS011;26753;45.544;9.232;2024-03-06T08:25:13;7.28;;;4.88;;
40659;SDS011;26753;45.544;9.232;2024-03-06T08:27:40;5.07;;;2.50;;
40659;SDS011;26753;45.544;9.232;2024-03-06T08:30:06;4.07;;;2.35;;
40659;SDS011;26753;45.544;9.232;2024-03-06T08:32:36;3.78;;;2.80;;
40659;SDS011;26753;45.544;9.232;2024-03-06T08:35:03;6.35;;;3.05;;
40659;SDS011;26753;45.544;9.232;2024-03-06T08:37:31;4.10;;;2.97;;
40659;SDS011;26753;45.544;9.232;2024-03-06T08:39:59;7.90;;;5.00;;
40659;SDS011;26753;45.544;9.232;2024-03-06T08:42:26;6.20;;;3.67;;
40659;SDS011;26753;45.544;9.232;2024-03-06T08:44:52;5.38;;;3.10;;
40659;SDS011;26753;45.544;9.232;2024-03-06T08:47:18;4.38;;;2.90;;
40659;SDS011;26753;45.544;9.232;2024-03-06T08:49:44;7.75;;;3.38;;
40659;SDS011;26753;45.544;9.232;2024-03-06T08:52:10;6.10;;;3.47;;
40659;SDS011;26753;45.544;9.232;2024-03-06T08:54:36;5.18;;;3.13;;
40659;SDS011;26753;45.544;9.232;2024-03-06T08:57:02;5.88;;;3.17;;
40659;SDS011;26753;45.544;9.232;2024-03-06T08:59:29;6.82;;;3.63;;
40659;SDS011;26753;45.544;9.232;2024-03-06T09:01:56;5.07;;;3.20;;
40659;SDS011;26753;45.544;9.232;2024-03-06T09:04:22;6.20;;;3.25;;
40659;SDS011;26753;45.544;9.232;2024-03-06T09:06:48;6.32;;;3.30;;
40659;SDS011;26753;45.544;9.232;2024-03-06T09:09:14;6.78;;;3.58;;
40659;SDS011;26753;45.544;9.232;2024-03-06T09:11:40;4.80;;;3.60;;
40659;SDS011;26753;45.544;9.232;2024-03-06T09:14:09;7.53;;;3.83;;
40659;SDS011;26753;45.544;9.232;2024-03-06T09:16:35;6.70;;;3.67;;
40659;SDS011;26753;45.544;9.232;2024-03-06T09:19:01;7.30;;;3.63;;
40659;SDS011;26753;45.544;9.232;2024-03-06T09:21:27;5.65;;;4.00;;
40659;SDS011;26753;45.544;9.232;2024-03-06T09:23:53;7.40;;;3.25;;
40659;SDS011;26753;45.544;9.232;2024-03-06T09:26:19;5.93;;;3.67;;
40659;SDS011;26753;45.544;9.232;2024-03-06T09:28:45;4.90;;;3.63;;
40659;SDS011;26753;45.544;9.232;2024-03-06T09:31:11;6.18;;;3.70;;
40659;SDS011;26753;45.544;9.232;2024-03-06T09:33:39;6.40;;;4.05;;
40659;SDS011;26753;45.544;9.232;2024-03-06T09:36:05;6.97;;;4.00;;
40659;SDS011;26753;45.544;9.232;2024-03-06T09:38:31;8.15;;;4.43;;
40659;SDS011;26753;45.544;9.232;2024-03-06T09:40:57;7.40;;;4.18;;
40659;SDS011;26753;45.544;9.232;2024-03-06T09:43:22;8.38;;;4.32;;
40659;SDS011;26753;45.544;9.232;2024-03-06T09:45:49;7.40;;;4.00;;
40659;SDS011;26753;45.544;9.232;2024-03-06T09:48:16;8.05;;;4.40;;
40659;SDS011;26753;45.544;9.232;2024-03-06T09:50:44;11.27;;;4.80;;
40659;SDS011;26753;45.544;9.232;2024-03-06T09:53:12;8.15;;;4.90;;
40659;SDS011;26753;45.544;9.232;2024-03-06T09:55:40;8.40;;;5.20;;
40659;SDS011;26753;45.544;9.232;2024-03-06T09:58:07;9.30;;;5.20;;
40659;SDS011;26753;45.544;9.232;2024-03-06T10:00:34;7.00;;;5.32;;
40659;SDS011;26753;45.544;9.232;2024-03-06T10:03:01;10.60;;;6.07;;
40659;SDS011;26753;45.544;9.232;2024-03-06T10:08:02;8.65;;;4.70;;
40659;SDS011;26753;45.544;9.232;2024-03-06T10:10:31;8.23;;;5.32;;
40659;SDS011;26753;45.544;9.232;2024-03-06T10:12:57;10.13;;;5.93;;
40659;SDS011;26753;45.544;9.232;2024-03-06T10:15:25;8.40;;;5.10;;
40659;SDS011;26753;45.544;9.232;2024-03-06T10:18:02;11.73;;;5.82;;
40659;SDS011;26753;45.544;9.232;2024-03-06T10:20:36;10.13;;;5.45;;
40659;SDS011;26753;45.544;9.232;2024-03-06T10:23:02;10.70;;;5.63;;
40659;SDS011;26753;45.544;9.232;2024-03-06T10:25:28;10.02;;;5.60;;
40659;SDS011;26753;45.544;9.232;2024-03-06T10:28:03;39.97;;;7.05;;
40659;SDS011;26753;45.544;9.232;2024-03-06T10:30:37;24.52;;;6.30;;
40659;SDS011;26753;45.544;9.232;2024-03-06T10:33:06;14.35;;;5.68;;
40659;SDS011;26753;45.544;9.232;2024-03-06T10:35:33;10.00;;;5.70;;
40659;SDS011;26753;45.544;9.232;2024-03-06T10:38:02;10.48;;;5.55;;
40659;SDS011;26753;45.544;9.232;2024-03-06T10:40:32;13.73;;;4.97;;
40659;SDS011;26753;45.544;9.232;2024-03-06T10:42:59;11.73;;;4.90;;
40659;SDS011;26753;45.544;9.232;2024-03-06T10:48:09;14.13;;;6.30;;
40659;SDS011;26753;45.544;9.232;2024-03-06T10:50:40;10.40;;;5.90;;
40659;SDS011;26753;45.544;9.232;2024-03-06T10:53:11;9.10;;;4.97;;
40659;SDS011;26753;45.544;9.232;2024-03-06T10:55:38;9.10;;;5.03;;
40659;SDS011;26753;45.544;9.232;2024-03-06T10:58:05;11.45;;;5.45;;
40659;SDS011;26753;45.544;9.232;2024-03-06T11:00:35;10.80;;;5.00;;
40659;SDS011;26753;45.544;9.232;2024-03-06T11:03:06;10.57;;;4.50;;
40659;SDS011;26753;45.544;9.232;2024-03-06T11:05:39;7.22;;;4.32;;
40659;SDS011;26753;45.544;9.232;2024-03-06T11:08:09;8.65;;;4.40;;
40659;SDS011;26753;45.544;9.232;2024-03-06T11:10:36;7.72;;;4.13;;
40659;SDS011;26753;45.544;9.232;2024-03-06T11:15:49;9.02;;;4.60;;
40659;SDS011;26753;45.544;9.232;2024-03-06T11:23:26;7.00;;;3.90;;
40659;SDS011;26753;45.544;9.232;2024-03-06T11:33:34;7.55;;;4.20;;
40659;SDS011;26753;45.544;9.232;2024-03-06T11:36:25;10.38;;;4.70;;
40659;SDS011;26753;45.544;9.232;2024-03-06T11:39:05;11.15;;;5.07;;
40659;SDS011;26753;45.544;9.232;2024-03-06T11:41:37;9.48;;;4.32;;
40659;SDS011;26753;45.544;9.232;2024-03-06T11:44:16;9.20;;;3.88;;
40659;SDS011;26753;45.544;9.232;2024-03-06T11:47:02;6.25;;;3.22;;
40659;SDS011;26753;45.544;9.232;2024-03-06T11:49:30;8.48;;;3.30;;
40659;SDS011;26753;45.544;9.232;2024-03-06T11:51:59;8.15;;;3.58;;
40659;SDS011;26753;45.544;9.232;2024-03-06T11:54:27;9.13;;;4.30;;
40659;SDS011;26753;45.544;9.232;2024-03-06T11:56:56;8.85;;;4.50;;
40659;SDS011;26753;45.544;9.232;2024-03-06T12:01:49;9.35;;;3.92;;
40659;SDS011;26753;45.544;9.232;2024-03-06T12:04:16;5.82;;;3.30;;
40659;SDS011;26753;45.544;9.232;2024-03-06T12:06:41;7.38;;;3.40;;
40659;SDS011;26753;45.544;9.232;2024-03-06T12:09:07;7.32;;;3.83;;
40659;SDS011;26753;45.544;9.232;2024-03-06T12:11:36;8.70;;;4.85;;
40659;SDS011;26753;45.544;9.232;2024-03-06T12:14:02;15.55;;;5.93;;
40659;SDS011;26753;45.544;9.232;2024-03-06T12:16:28;11.50;;;5.75;;
40659;SDS011;26753;45.544;9.232;2024-03-06T12:18:57;10.50;;;5.57;;
40659;SDS011;26753;45.544;9.232;2024-03-06T12:21:33;8.02;;;4.75;;
40659;SDS011;26753;45.544;9.232;2024-03-06T12:24:06;10.27;;;4.57;;
40659;SDS011;26753;45.544;9.232;2024-03-06T12:26:33;8.48;;;4.55;;
40659;SDS011;26753;45.544;9.232;2024-03-06T12:29:09;6.90;;;3.30;;
40659;SDS011;26753;45.544;9.232;2024-03-06T12:31:41;4.05;;;2.03;;
40659;SDS011;26753;45.544;9.232;2024-03-06T12:34:07;3.85;;;2.10;;
40659;SDS011;26753;45.544;9.232;2024-03-06T12:36:34;4.97;;;2.40;;
40659;SDS011;26753;45.544;9.232;2024-03-06T12:39:01;2.95;;;1.90;;
40659;SDS011;26753;45.544;9.232;2024-03-06T12:41:28;3.65;;;1.90;;
40659;SDS011;26753;45.544;9.232;2024-03-06T12:43:55;2.53;;;1.73;;
40659;SDS011;26753;45.544;9.232;2024-03-06T12:46:21;2.45;;;1.38;;
40659;SDS011;26753;45.544;9.232;2024-03-06T12:48:51;3.40;;;1.50;;
40659;SDS011;26753;45.544;9.232;2024-03-06T12:51:17;2.22;;;1.40;;
40659;SDS011;26753;45.544;9.232;2024-03-06T12:53:43;2.90;;;1.70;;
40659;SDS011;26753;45.544;9.232;2024-03-06T12:56:08;2.50;;;1.17;;
40659;SDS011;26753;45.544;9.232;2024-03-06T12:58:35;0.80;;;0.80;;
40659;SDS011;26753;45.544;9.232;2024-03-06T13:01:00;1.55;;;0.90;;
40659;SDS011;26753;45.544;9.232;2024-03-06T13:03:26;1.80;;;0.90;;
40659;SDS011;26753;45.544;9.232;2024-03-06T13:05:53;2.38;;;1.10;;
40659;SDS011;26753;45.544;9.232;2024-03-06T13:08:19;1.30;;;0.88;;
40659;SDS011;26753;45.544;9.232;2024-03-06T13:10:44;1.83;;;1.00;;
40659;SDS011;26753;45.544;9.232;2024-03-06T13:13:10;2.17;;;1.20;;
40659;SDS011;26753;45.544;9.232;2024-03-06T13:15:36;2.55;;;1.50;;
40659;SDS011;26753;45.544;9.232;2024-03-06T13:18:04;3.40;;;1.95;;
40659;SDS011;26753;45.544;9.232;2024-03-06T13:20:30;6.30;;;3.67;;
40659;SDS011;26753;45.544;9.232;2024-03-06T13:22:56;2.20;;;1.80;;
40659;SDS011;26753;45.544;9.232;2024-03-06T13:25:22;2.78;;;1.45;;
40659;SDS011;26753;45.544;9.232;2024-03-06T13:27:49;2.58;;;2.15;;
40659;SDS011;26753;45.544;9.232;2024-03-06T13:30:15;2.83;;;1.70;;
40659;SDS011;26753;45.544;9.232;2024-03-06T13:32:41;1.40;;;1.10;;
40659;SDS011;26753;45.544;9.232;2024-03-06T13:35:13;1.90;;;1.20;;
40659;SDS011;26753;45.544;9.232;2024-03-06T13:37:39;3.17;;;1.40;;
40659;SDS011;26753;45.544;9.232;2024-03-06T13:40:06;4.03;;;1.30;;
40659;SDS011;26753;45.544;9.232;2024-03-06T13:42:34;1.70;;;0.90;;
40659;SDS011;26753;45.544;9.232;2024-03-06T13:45:00;3.67;;;1.50;;
40659;SDS011;26753;45.544;9.232;2024-03-06T13:47:26;3.67;;;1.80;;
40659;SDS011;26753;45.544;9.232;2024-03-06T13:49:52;2.45;;;0.82;;
40659;SDS011;26753;45.544;9.232;2024-03-06T13:52:17;1.83;;;0.90;;
40659;SDS011;26753;45.544;9.232;2024-03-06T13:54:45;3.25;;;1.08;;
40659;SDS011;26753;45.544;9.232;2024-03-06T13:57:12;1.42;;;0.85;;
40659;SDS011;26753;45.544;9.232;2024-03-06T13:59:38;2.20;;;1.10;;
40659;SDS011;26753;45.544;9.232;2024-03-06T14:02:05;1.38;;;0.77;;
40659;SDS011;26753;45.544;9.232;2024-03-06T14:04:31;2.05;;;0.77;;
40659;SDS011;26753;45.544;9.232;2024-03-06T14:06:57;2.55;;;1.00;;
40659;SDS011;26753;45.544;9.232;2024-03-06T14:09:24;1.98;;;0.85;;
40659;SDS011;26753;45.544;9.232;2024-03-06T14:11:50;1.67;;;1.00;;
40659;SDS011;26753;45.544;9.232;2024-03-06T14:14:16;1.20;;;1.02;;
40659;SDS011;26753;45.544;9.232;2024-03-06T14:16:43;3.22;;;1.35;;
40659;SDS011;26753;45.544;9.232;2024-03-06T14:19:08;3.15;;;1.33;;
40659;SDS011;26753;45.544;9.232;2024-03-06T14:21:35;2.30;;;1.42;;
40659;SDS011;26753;45.544;9.232;2024-03-06T14:24:01;1.58;;;1.20;;
40659;SDS011;26753;45.544;9.232;2024-03-06T14:26:29;1.65;;;1.30;;
40659;SDS011;26753;45.544;9.232;2024-03-06T14:28:55;3.60;;;1.27;;
40659;SDS011;26753;45.544;9.232;2024-03-06T14:31:21;3.60;;;1.20;;
40659;SDS011;26753;45.544;9.232;2024-03-06T14:33:47;2.30;;;1.25;;
40659;SDS011;26753;45.544;9.232;2024-03-06T14:36:14;6.75;;;2.08;;
40659;SDS011;26753;45.544;9.232;2024-03-06T14:38:39;3.45;;;1.88;;
40659;SDS011;26753;45.544;9.232;2024-03-06T14:41:05;3.67;;;1.88;;
40659;SDS011;26753;45.544;9.232;2024-03-06T14:43:32;5.50;;;1.80;;
40659;SDS011;26753;45.544;9.232;2024-03-06T14:45:59;3.05;;;1.50;;
40659;SDS011;26753;45.544;9.232;2024-03-06T14:48:25;4.20;;;1.55;;
40659;SDS011;26753;45.544;9.232;2024-03-06T14:50:51;4.97;;;2.55;;
40659;SDS011;26753;45.544;9.232;2024-03-06T14:53:16;4.57;;;2.50;;
40659;SDS011;26753;45.544;9.232;2024-03-06T14:55:42;5.57;;;3.15;;
40659;SDS011;26753;45.544;9.232;2024-03-06T14:58:08;7.32;;;4.20;;
40659;SDS011;26753;45.544;9.232;2024-03-06T15:00:33;8.75;;;3.78;;
40659;SDS011;26753;45.544;9.232;2024-03-06T15:02:59;9.38;;;2.70;;
40659;SDS011;26753;45.544;9.232;2024-03-06T15:05:26;8.27;;;3.03;;
40659;SDS011;26753;45.544;9.232;2024-03-06T15:07:52;5.35;;;2.47;;
40659;SDS011;26753;45.544;9.232;2024-03-06T15:10:18;7.65;;;3.28;;